Time;durP1;ratioP1;P1;durP2;ratioP2;P2;SDS_P1;SDS_P2;PMS_P1;PMS_P2;Temp;Humidity;BMP_temperature;BMP_pressure;BME280_temperature;BME280_humidity;BME280_pressure;Samples;Min_cycle;Max_cycle;Signal;HPM_P1;HPM_P2
2021/06/08 00:01:55;;;;;;;5.22;4.00;;;19.10;99.90;;;;;;5052427;28;20246;-79
2021/06/08 00:04:21;;;;;;;5.47;3.80;;;19.20;99.90;;;;;;5054760;28;20534;-79
2021/06/08 00:06:47;;;;;;;6.63;4.43;;;19.20;99.90;;;;;;5056296;28;20167;-79
2021/06/08 00:09:12;;;;;;;4.10;3.70;;;19.20;99.90;;;;;;5056015;28;20167;-79
2021/06/08 00:11:38;;;;;;;4.45;4.05;;;19.10;99.90;;;;;;5056031;28;20178;-79
2021/06/08 00:14:04;;;;;;;3.63;3.33;;;19.10;99.90;;;;;;5055814;28;20205;-79
2021/06/08 00:16:29;;;;;;;7.10;4.00;;;19.00;99.90;;;;;;5055638;28;20250;-79
2021/06/08 00:18:55;;;;;;;5.18;4.53;;;19.00;99.90;;;;;;5038035;28;20222;-79
2021/06/08 00:21:21;;;;;;;4.97;4.47;;;19.00;99.90;;;;;;5055934;28;20179;-79
2021/06/08 00:23:46;;;;;;;7.47;4.50;;;19.00;99.90;;;;;;5055486;28;20171;-80
2021/06/08 00:26:12;;;;;;;4.40;4.10;;;19.10;99.90;;;;;;5055473;28;20649;-79
2021/06/08 00:28:38;;;;;;;5.28;4.82;;;19.10;99.90;;;;;;5055650;28;20202;-79
2021/06/08 00:31:03;;;;;;;8.43;4.55;;;18.90;99.90;;;;;;5054981;28;20562;-79
2021/06/08 00:33:29;;;;;;;4.75;4.32;;;18.90;99.90;;;;;;5055632;28;20190;-79
2021/06/08 00:35:55;;;;;;;4.90;4.38;;;18.70;99.90;;;;;;5055400;28;20170;-79
2021/06/08 00:38:20;;;;;;;3.97;3.67;;;18.70;99.90;;;;;;5055338;28;20544;-79
2021/06/08 00:40:46;;;;;;;8.60;4.45;;;18.70;99.90;;;;;;5037520;28;20569;-79
2021/06/08 00:43:12;;;;;;;5.47;4.97;;;18.80;99.90;;;;;;5055388;28;20177;-79
2021/06/08 00:45:38;;;;;;;6.60;4.68;;;18.60;99.90;;;;;;5055558;28;20687;-80
2021/06/08 00:48:07;;;;;;;5.28;4.88;;;18.50;99.90;;;;;;5055628;28;20191;-79
2021/06/08 00:50:36;;;;;;;6.75;4.95;;;18.50;99.90;;;;;;5037767;28;20230;-78
2021/06/08 00:53:02;;;;;;;4.70;4.40;;;18.30;99.90;;;;;;5037460;28;20167;-79
2021/06/08 00:55:27;;;;;;;5.70;5.20;;;18.40;99.90;;;;;;5055054;28;20208;-80
2021/06/08 00:57:53;;;;;;;6.20;5.63;;;18.40;99.90;;;;;;5055500;28;20206;-79
2021/06/08 01:00:20;;;;;;;5.68;5.07;;;18.40;99.90;;;;;;5037136;28;20205;-79
2021/06/08 01:02:46;;;;;;;5.50;5.00;;;18.30;99.90;;;;;;5055656;28;20538;-79
2021/06/08 01:05:12;;;;;;;6.63;5.90;;;18.40;99.90;;;;;;5054917;28;20178;-79
2021/06/08 01:07:37;;;;;;;5.72;5.10;;;18.40;99.90;;;;;;5054807;28;20178;-79
2021/06/08 01:10:06;;;;;;;8.60;5.55;;;18.40;99.90;;;;;;5036286;28;20191;-79
2021/06/08 01:12:32;;;;;;;5.93;5.43;;;18.50;99.90;;;;;;5054358;28;20254;-79
2021/06/08 01:14:57;;;;;;;5.20;4.80;;;18.60;99.90;;;;;;5053751;28;20593;-79
2021/06/08 01:17:23;;;;;;;5.68;5.25;;;18.40;99.90;;;;;;5054335;28;20199;-79
2021/06/08 01:19:53;;;;;;;10.15;5.43;;;18.50;99.90;;;;;;5054299;28;20202;-79
2021/06/08 01:22:18;;;;;;;5.55;4.97;;;18.30;99.90;;;;;;5036808;28;20178;-79
2021/06/08 01:24:46;;;;;;;5.72;5.22;;;18.20;99.90;;;;;;5036861;28;20262;-78
2021/06/08 01:27:12;;;;;;;5.68;5.18;;;18.10;99.90;;;;;;5054614;28;20167;-79
2021/06/08 01:29:39;;;;;;;6.30;5.43;;;18.20;99.90;;;;;;5054875;28;20179;-79
2021/06/08 01:32:07;;;;;;;7.20;5.20;;;18.10;99.90;;;;;;5054278;28;20179;-79
2021/06/08 01:34:34;;;;;;;6.57;5.97;;;18.10;99.90;;;;;;5054524;28;20171;-79
2021/06/08 01:37:00;;;;;;;6.20;5.80;;;18.30;99.90;;;;;;5054221;28;20171;-79
2021/06/08 01:39:26;;;;;;;6.20;5.70;;;18.20;99.90;;;;;;5036574;28;20257;-79
2021/06/08 01:41:53;;;;;;;5.88;5.38;;;18.30;99.90;;;;;;5054483;28;20181;-79
2021/06/08 01:44:19;;;;;;;9.45;5.50;;;18.20;99.90;;;;;;5054349;28;20172;-79
2021/06/08 01:46:44;;;;;;;7.72;6.15;;;18.20;99.90;;;;;;5054368;28;20167;-79
2021/06/08 01:49:10;;;;;;;6.32;5.82;;;18.20;99.90;;;;;;5054508;28;20492;-79
2021/06/08 01:51:54;;;;;;;6.68;6.18;;;18.10;99.90;;;;;;5054314;28;20230;-79
2021/06/08 01:54:29;;;;;;;6.50;5.72;;;18.10;99.90;;;;;;5069288;28;20159;-78
2021/06/08 01:57:10;;;;;;;9.18;6.95;;;18.20;99.90;;;;;;5072401;28;20163;-78
2021/06/08 01:59:54;;;;;;;8.20;6.53;;;18.20;99.90;;;;;;5073218;28;20202;-78
2021/06/08 02:03:04;;;;;;;6.70;6.18;;;18.20;99.90;;;;;;5071875;28;20189;-78
2021/06/08 02:05:50;;;;;;;7.80;6.97;;;18.20;99.90;;;;;;5073541;28;20245;-78
2021/06/08 02:08:34;;;;;;;12.77;6.55;;;18.20;99.90;;;;;;5072764;28;20174;-79
2021/06/08 02:11:15;;;;;;;7.28;6.63;;;18.10;99.90;;;;;;5058976;28;20187;-78
2021/06/08 02:14:29;;;;;;;10.07;7.47;;;18.00;99.90;;;;;;5059025;28;20246;-80
2021/06/08 02:17:02;;;;;;;10.20;7.40;;;18.10;99.90;;;;;;5040650;28;20202;-79
2021/06/08 02:19:30;;;;;;;8.98;8.23;;;18.10;99.90;;;;;;5055865;28;20195;-79
2021/06/08 02:22:01;;;;;;;8.45;6.90;;;18.10;99.90;;;;;;5053573;28;20163;-79
2021/06/08 02:24:29;;;;;;;8.73;7.82;;;18.00;99.90;;;;;;5035653;28;20171;-79
2021/06/08 02:27:05;;;;;;;8.70;7.78;;;18.00;99.90;;;;;;5052587;28;20178;-79
2021/06/08 02:29:31;;;;;;;14.23;8.82;;;18.00;99.90;;;;;;5053364;28;20194;-79
2021/06/08 02:31:58;;;;;;;13.43;8.80;;;17.80;99.90;;;;;;5035240;28;20187;-79
2021/06/08 02:34:24;;;;;;;12.93;8.23;;;17.70;99.90;;;;;;5035294;28;20171;-79
2021/06/08 02:36:52;;;;;;;14.73;8.43;;;17.60;99.90;;;;;;5052876;28;20178;-80
2021/06/08 02:39:19;;;;;;;12.55;7.85;;;17.60;99.90;;;;;;5053460;28;20244;-79
2021/06/08 02:41:45;;;;;;;8.38;7.40;;;17.60;99.90;;;;;;5053199;28;20163;-79
2021/06/08 02:44:13;;;;;;;12.35;7.38;;;17.70;99.90;;;;;;5053200;28;20190;-79
2021/06/08 02:46:39;;;;;;;10.15;7.22;;;17.70;99.90;;;;;;5053024;28;20164;-79
2021/06/08 02:49:06;;;;;;;13.25;7.80;;;17.70;99.90;;;;;;5035315;28;20162;-79
2021/06/08 02:51:34;;;;;;;9.30;8.20;;;17.60;99.90;;;;;;5052947;28;20659;-79
2021/06/08 02:54:00;;;;;;;10.32;8.05;;;17.70;99.90;;;;;;5053108;28;20651;-79
2021/06/08 02:56:26;;;;;;;14.85;8.27;;;17.70;99.90;;;;;;5053012;28;20175;-79
2021/06/08 02:58:52;;;;;;;10.48;8.15;;;17.70;99.90;;;;;;5052619;28;20265;-80
2021/06/08 03:01:19;;;;;;;8.45;7.75;;;17.60;99.90;;;;;;5052463;28;20651;-79
2021/06/08 03:03:50;;;;;;;9.02;8.27;;;17.70;99.90;;;;;;5052874;28;20198;-79
2021/06/08 03:06:27;;;;;;;11.93;8.20;;;17.70;99.90;;;;;;5052596;28;20982;-79
2021/06/08 03:09:03;;;;;;;9.85;8.85;;;17.60;99.90;;;;;;5034954;28;20171;-79
2021/06/08 03:11:51;;;;;;;19.77;8.07;;;17.70;99.90;;;;;;5052998;28;20194;-79
2021/06/08 03:14:19;;;;;;;9.20;8.25;;;17.70;99.90;;;;;;5034807;28;20186;-79
2021/06/08 03:16:54;;;;;;;8.98;8.15;;;17.70;99.90;;;;;;5052470;28;20160;-78
2021/06/08 03:19:24;;;;;;;11.07;8.15;;;17.60;99.90;;;;;;5052377;28;20244;-79
2021/06/08 03:21:52;;;;;;;10.32;8.27;;;17.60;99.90;;;;;;5034976;28;20167;-79
2021/06/08 03:24:21;;;;;;;15.50;8.40;;;17.60;99.90;;;;;;5052478;28;20171;-79
2021/06/08 03:26:48;;;;;;;13.48;8.93;;;17.60;99.90;;;;;;5052968;28;20247;-78
2021/06/08 03:29:16;;;;;;;13.20;7.82;;;17.60;99.90;;;;;;5052585;28;20167;-79
2021/06/08 03:31:45;;;;;;;9.77;8.82;;;17.60;99.90;;;;;;5052214;28;20191;-79
2021/06/08 03:34:15;;;;;;;9.80;8.10;;;17.60;99.90;;;;;;5052357;28;20213;-79
2021/06/08 03:36:48;;;;;;;24.45;8.90;;;17.50;99.90;;;;;;5052386;28;20213;-79
2021/06/08 03:39:15;;;;;;;13.10;9.38;;;17.60;99.90;;;;;;5055149;28;20214;-79
2021/06/08 03:41:46;;;;;;;9.38;8.68;;;17.60;99.90;;;;;;5063557;28;20155;-78
2021/06/08 03:44:16;;;;;;;9.00;7.40;;;17.60;99.90;;;;;;5079349;28;20167;-78
2021/06/08 03:46:44;;;;;;;9.05;8.30;;;17.60;99.90;;;;;;5062474;28;20170;-79
2021/06/08 03:49:10;;;;;;;10.00;9.02;;;17.60;99.90;;;;;;5057888;28;20182;-79
2021/06/08 03:51:36;;;;;;;10.93;9.55;;;17.50;99.90;;;;;;5056237;28;20170;-79
2021/06/08 03:54:03;;;;;;;18.08;10.13;;;17.50;99.90;;;;;;5056470;28;20183;-79
2021/06/08 03:56:29;;;;;;;10.30;9.20;;;17.60;99.90;;;;;;5056157;28;20175;-79
2021/06/08 03:58:56;;;;;;;15.77;9.57;;;17.70;99.90;;;;;;5056074;28;20203;-79
2021/06/08 04:01:23;;;;;;;13.32;9.43;;;17.80;99.90;;;;;;5056114;28;20180;-79
2021/06/08 04:03:49;;;;;;;16.35;8.90;;;17.80;99.90;;;;;;5056059;28;20174;-78
2021/06/08 04:06:16;;;;;;;13.52;8.02;;;18.00;99.90;;;;;;5055902;28;20163;-80
2021/06/08 04:08:43;;;;;;;10.70;7.25;;;18.20;99.90;;;;;;5056733;28;20198;-79
2021/06/08 04:11:12;;;;;;;15.70;7.40;;;18.50;99.90;;;;;;5055900;28;20266;-80
2021/06/08 04:13:41;;;;;;;12.55;8.23;;;18.80;99.90;;;;;;5056066;28;20642;-79
2021/06/08 04:16:08;;;;;;;9.23;8.15;;;19.10;99.90;;;;;;5056107;28;20163;-80
2021/06/08 04:18:35;;;;;;;10.77;8.77;;;19.40;99.90;;;;;;5055835;28;20285;-79
2021/06/08 04:21:01;;;;;;;13.38;8.07;;;19.50;99.90;;;;;;5055779;28;20678;-79
2021/06/08 04:23:28;;;;;;;9.23;8.23;;;19.40;99.90;;;;;;5055665;28;20174;-79
2021/06/08 04:25:54;;;;;;;11.23;8.27;;;19.30;99.90;;;;;;5037617;28;20527;-79
2021/06/08 04:28:21;;;;;;;9.57;8.65;;;19.40;99.90;;;;;;5055627;28;20242;-79
2021/06/08 04:30:48;;;;;;;9.13;7.93;;;19.40;99.90;;;;;;5055418;28;20191;-79
2021/06/08 04:33:19;;;;;;;15.00;7.95;;;19.30;99.90;;;;;;5037537;28;20647;-79
2021/06/08 04:35:45;;;;;;;13.30;8.75;;;19.30;99.90;;;;;;5055444;28;20294;-80
2021/06/08 04:38:14;;;;;;;9.40;8.60;;;19.30;99.90;;;;;;5055364;28;20297;-79
2021/06/08 04:40:43;;;;;;;11.65;8.88;;;19.10;99.90;;;;;;5055352;28;20258;-79
2021/06/08 04:43:08;;;;;;;13.70;9.50;;;19.10;99.90;;;;;;5037468;28;20202;-79
2021/06/08 04:45:34;;;;;;;11.68;8.68;;;19.30;99.90;;;;;;5055514;28;20202;-79
2021/06/08 04:48:00;;;;;;;11.43;8.15;;;19.20;99.90;;;;;;5037288;28;20331;-79
2021/06/08 04:50:27;;;;;;;10.55;8.77;;;19.30;99.90;;;;;;5053900;28;20602;-79
2021/06/08 04:52:56;;;;;;;17.08;8.75;;;19.10;99.90;;;;;;5037392;28;20179;-79
2021/06/08 04:55:23;;;;;;;16.77;9.65;;;19.00;99.90;;;;;;5055209;28;20174;-79
2021/06/08 04:57:50;;;;;;;18.13;9.48;;;19.20;99.90;;;;;;5055032;28;20260;-80
2021/06/08 05:00:20;;;;;;;21.17;10.88;;;19.30;99.90;;;;;;5054277;28;20258;-79
2021/06/08 05:02:54;;;;;;;12.85;9.50;;;19.40;99.90;;;;;;5054989;28;20504;-80
2021/06/08 05:05:25;;;;;;;15.38;10.32;;;19.20;99.90;;;;;;5054831;28;20167;-80
2021/06/08 05:08:15;;;;;;;17.02;9.85;;;19.20;99.90;;;;;;5054863;28;20969;-79
2021/06/08 05:10:48;;;;;;;12.25;9.95;;;19.30;99.90;;;;;;5054655;28;20186;-79
2021/06/08 05:13:15;;;;;;;16.55;10.05;;;19.40;99.90;;;;;;5055039;28;20182;-79
2021/06/08 05:15:41;;;;;;;15.18;9.65;;;19.60;99.90;;;;;;5054631;28;20174;-80
2021/06/08 05:18:11;;;;;;;13.38;11.18;;;19.70;99.90;;;;;;5054804;28;20260;-79
2021/06/08 05:20:40;;;;;;;10.75;9.52;;;19.70;99.90;;;;;;5054369;28;20540;-79
2021/06/08 05:23:06;;;;;;;13.18;9.70;;;19.70;99.90;;;;;;5054436;28;20167;-79
2021/06/08 05:25:32;;;;;;;13.73;11.18;;;19.60;99.90;;;;;;5054356;28;20212;-79
2021/06/08 05:28:00;;;;;;;12.23;10.73;;;19.80;99.90;;;;;;5054153;28;20522;-80
2021/06/08 05:30:27;;;;;;;18.25;11.38;;;19.90;99.90;;;;;;5054173;28;20194;-80
2021/06/08 05:32:53;;;;;;;11.68;10.48;;;19.90;99.90;;;;;;5054177;28;20729;-80
2021/06/08 05:35:26;;;;;;;14.57;10.73;;;19.90;99.90;;;;;;5054016;28;20187;-79
2021/06/08 05:37:51;;;;;;;18.75;10.52;;;20.10;99.90;;;;;;5054361;28;20737;-79
2021/06/08 05:40:17;;;;;;;21.77;10.00;;;20.20;99.90;;;;;;5035969;28;20298;-79
2021/06/08 05:42:45;;;;;;;18.15;11.32;;;20.30;99.90;;;;;;5054439;28;20159;-80
2021/06/08 05:45:12;;;;;;;17.92;11.13;;;20.20;99.90;;;;;;5054471;28;20171;-80
2021/06/08 05:47:38;;;;;;;11.75;10.52;;;20.30;99.90;;;;;;5054616;28;20177;-80
2021/06/08 05:50:04;;;;;;;12.75;11.63;;;20.40;99.90;;;;;;5054862;28;20262;-80
2021/06/08 05:52:31;;;;;;;11.13;10.23;;;20.60;99.90;;;;;;5055201;28;20171;-79
2021/06/08 05:54:58;;;;;;;17.52;11.57;;;20.80;99.90;;;;;;5053845;28;20163;-80
2021/06/08 05:57:24;;;;;;;14.88;11.52;;;20.60;99.90;;;;;;5053695;28;20159;-80
2021/06/08 05:59:50;;;;;;;16.70;11.30;;;20.70;99.90;;;;;;5053810;28;20194;-80
2021/06/08 06:02:17;;;;;;;19.98;11.75;;;20.70;99.90;;;;;;5053198;28;20171;-78
2021/06/08 06:04:44;;;;;;;22.05;12.63;;;20.80;99.90;;;;;;5035662;28;20167;-79
2021/06/08 06:07:11;;;;;;;15.30;11.10;;;20.80;99.90;;;;;;5053334;28;20175;-78
2021/06/08 06:09:37;;;;;;;23.08;12.00;;;21.00;99.90;;;;;;5053815;28;20614;-81
2021/06/08 06:12:06;;;;;;;24.20;12.75;;;21.10;99.90;;;;;;5053907;28;20167;-79
2021/06/08 06:14:35;;;;;;;28.00;12.18;;;21.00;99.90;;;;;;5054063;28;20659;-80
2021/06/08 06:17:03;;;;;;;26.15;13.20;;;20.90;99.90;;;;;;5054180;28;20163;-81
2021/06/08 06:19:29;;;;;;;18.80;12.15;;;21.00;99.90;;;;;;5060033;28;20218;-78
2021/06/08 06:21:56;;;;;;;27.45;11.85;;;21.00;99.90;;;;;;5072567;28;20226;-79
2021/06/08 06:24:23;;;;;;;35.13;13.25;;;21.00;99.90;;;;;;5071069;28;20182;-77
2021/06/08 06:26:49;;;;;;;29.10;13.15;;;21.20;99.90;;;;;;5063543;28;20203;-77
2021/06/08 06:29:15;;;;;;;26.45;11.80;;;21.30;99.90;;;;;;5035802;28;20236;-78
2021/06/08 06:31:46;;;;;;;14.15;10.98;;;21.30;99.90;;;;;;5036186;28;20167;-77
2021/06/08 06:34:13;;;;;;;15.75;11.93;;;21.50;99.90;;;;;;5053788;28;20171;-78
2021/06/08 06:36:39;;;;;;;17.00;10.32;;;21.70;99.90;;;;;;5053140;28;20519;-78
2021/06/08 06:39:09;;;;;;;13.40;11.35;;;21.60;99.90;;;;;;5052800;28;20221;-78
2021/06/08 06:41:41;;;;;;;22.08;10.00;;;21.60;99.90;;;;;;5052978;28;20163;-78
2021/06/08 06:44:07;;;;;;;25.00;12.05;;;21.80;99.90;;;;;;5035033;28;20623;-78
2021/06/08 06:46:33;;;;;;;15.70;9.65;;;21.90;99.90;;;;;;5052406;28;20182;-77
2021/06/08 06:48:59;;;;;;;37.08;12.60;;;22.20;99.90;;;;;;5052942;28;20167;-78
2021/06/08 06:51:25;;;;;;;21.20;11.45;;;22.40;99.90;;;;;;5052600;28;20190;-77
2021/06/08 06:53:54;;;;;;;21.58;10.88;;;22.90;99.90;;;;;;5052490;28;20515;-78
2021/06/08 06:56:21;;;;;;;27.55;10.13;;;23.80;99.90;;;;;;5052751;28;20215;-78
2021/06/08 06:58:47;;;;;;;20.08;8.68;;;24.50;99.90;;;;;;5052857;28;20214;-79
2021/06/08 07:01:13;;;;;;;11.75;8.00;;;25.60;99.90;;;;;;5052811;28;20247;-79
2021/06/08 07:03:40;;;;;;;13.75;9.00;;;26.30;99.90;;;;;;5053231;28;20175;-79
2021/06/08 07:06:09;;;;;;;56.08;11.63;;;27.40;99.90;;;;;;5034290;28;20170;-79
2021/06/08 07:08:36;;;;;;;9.02;6.50;;;28.00;99.90;;;;;;5052316;28;20249;-79
2021/06/08 07:11:02;;;;;;;13.88;7.47;;;28.70;99.90;;;;;;5052594;28;20213;-80
2021/06/08 07:13:28;;;;;;;10.93;6.57;;;29.50;99.90;;;;;;5051961;28;20204;-80
2021/06/08 07:15:55;;;;;;;7.07;6.47;;;29.40;99.90;;;;;;5052325;28;20246;-79
2021/06/08 07:18:21;;;;;;;7.13;6.53;;;28.80;99.90;;;;;;5052354;28;20206;-79
2021/06/08 07:20:46;;;;;;;7.30;6.70;;;29.10;99.90;;;;;;5052088;28;20182;-80
2021/06/08 07:23:16;;;;;;;16.98;6.57;;;30.20;99.90;;;;;;5051939;28;20162;-80
2021/06/08 07:25:43;;;;;;;9.70;6.28;;;30.70;99.10;;;;;;5034413;28;20167;-80
2021/06/08 07:28:10;;;;;;;7.03;6.43;;;31.40;97.20;;;;;;5052339;28;20530;-81
2021/06/08 07:30:37;;;;;;;16.98;6.45;;;30.80;97.10;;;;;;5051648;28;20191;-78
2021/06/08 07:33:15;;;;;;;18.70;7.40;;;31.00;96.50;;;;;;5052310;28;20209;-80
2021/06/08 07:35:57;;;;;;;6.78;5.95;;;31.40;95.60;;;;;;5052421;28;20253;-79
2021/06/08 07:38:34;;;;;;;7.35;5.45;;;32.20;94.00;;;;;;5051627;28;20289;-79
2021/06/08 07:41:09;;;;;;;7.43;6.82;;;32.20;93.40;;;;;;5051516;28;20741;-79
2021/06/08 07:43:38;;;;;;;11.50;6.75;;;31.90;92.90;;;;;;5051905;28;20158;-80
2021/06/08 07:46:13;;;;;;;6.45;5.90;;;31.40;93.10;;;;;;5033640;28;20484;-82
2021/06/08 07:48:43;;;;;;;19.40;6.45;;;30.50;93.90;;;;;;5051954;28;20166;-81
2021/06/08 07:51:09;;;;;;;6.25;5.68;;;29.80;95.20;;;;;;5051783;28;20219;-81
2021/06/08 07:53:36;;;;;;;6.60;6.10;;;29.30;95.10;;;;;;5052046;28;20167;-80
2021/06/08 07:56:02;;;;;;;9.88;6.80;;;29.10;95.70;;;;;;5051878;28;20155;-79
2021/06/08 07:58:28;;;;;;;10.32;6.30;;;28.90;96.20;;;;;;5034161;28;20689;-79
2021/06/08 08:00:58;;;;;;;6.55;6.00;;;28.40;96.70;;;;;;5051657;28;20183;-79
2021/06/08 08:03:25;;;;;;;7.30;5.90;;;27.50;97.80;;;;;;5052012;28;20168;-78
2021/06/08 08:06:11;;;;;;;10.30;6.57;;;27.10;98.40;;;;;;5011183;28;20195;-79
2021/06/08 08:08:38;;;;;;;6.47;5.78;;;26.10;99.40;;;;;;5052078;28;20563;-79
2021/06/08 08:11:15;;;;;;;10.63;6.63;;;26.00;99.80;;;;;;5033696;28;20549;-80
2021/06/08 08:13:44;;;;;;;7.80;7.10;;;25.60;99.90;;;;;;5051920;28;20171;-79
2021/06/08 08:16:12;;;;;;;10.25;6.40;;;25.40;99.90;;;;;;5033940;28;20182;-79
2021/06/08 08:18:40;;;;;;;6.88;6.22;;;25.40;99.90;;;;;;5051633;28;20199;-79
2021/06/08 08:21:09;;;;;;;7.32;6.57;;;25.30;99.90;;;;;;5052207;28;20579;-78
2021/06/08 08:23:36;;;;;;;10.55;6.95;;;25.00;99.90;;;;;;5051790;28;20174;-78
2021/06/08 08:26:04;;;;;;;11.75;7.15;;;25.20;99.90;;;;;;5053899;28;20718;-78
2021/06/08 08:28:32;;;;;;;8.77;5.55;;;24.80;99.90;;;;;;5069078;28;20181;-77
2021/06/08 08:31:00;;;;;;;18.77;7.60;;;24.70;99.90;;;;;;5071699;28;20244;-78
2021/06/08 08:33:28;;;;;;;6.38;5.88;;;24.80;99.90;;;;;;5069175;28;20225;-77
2021/06/08 08:35:54;;;;;;;9.32;7.03;;;24.30;99.90;;;;;;5055744;28;20227;-78
2021/06/08 08:38:20;;;;;;;6.93;6.38;;;24.30;99.90;;;;;;5074278;28;20886;-78
2021/06/08 08:40:46;;;;;;;14.70;6.35;;;24.40;99.90;;;;;;5073521;28;20190;-79
2021/06/08 08:43:12;;;;;;;7.25;6.28;;;24.30;99.90;;;;;;5073609;28;20177;-78
2021/06/08 08:45:38;;;;;;;7.78;7.18;;;24.10;99.90;;;;;;5074071;28;20166;-78
2021/06/08 08:48:05;;;;;;;6.32;5.63;;;24.10;99.90;;;;;;5074283;28;20163;-78
2021/06/08 08:50:31;;;;;;;8.48;5.60;;;24.30;99.90;;;;;;5074291;28;20271;-78
2021/06/08 08:53:04;;;;;;;8.52;7.60;;;24.50;99.90;;;;;;5073988;28;20171;-78
2021/06/08 08:55:34;;;;;;;10.77;6.72;;;24.50;99.90;;;;;;5073464;28;20170;-78
2021/06/08 08:58:01;;;;;;;8.48;6.50;;;24.70;99.90;;;;;;5073397;28;20204;-79
2021/06/08 09:00:29;;;;;;;12.52;7.68;;;25.10;99.90;;;;;;5073654;28;20178;-80
2021/06/08 09:02:57;;;;;;;9.02;7.00;;;25.40;99.90;;;;;;5073693;28;20174;-77
2021/06/08 09:05:24;;;;;;;6.97;6.28;;;25.60;99.90;;;;;;5073233;28;20535;-78
2021/06/08 09:07:51;;;;;;;7.18;6.50;;;25.40;99.90;;;;;;5073242;28;20193;-78
2021/06/08 09:10:18;;;;;;;6.93;6.40;;;25.60;99.90;;;;;;5073675;28;20190;-78
2021/06/08 09:12:44;;;;;;;8.68;5.78;;;25.60;99.90;;;;;;5073258;28;20181;-77
2021/06/08 09:15:10;;;;;;;6.07;5.47;;;26.00;99.90;;;;;;5073217;28;20631;-77
2021/06/08 09:17:39;;;;;;;11.23;5.75;;;26.20;99.90;;;;;;5073208;28;20602;-77
2021/06/08 09:20:09;;;;;;;7.22;6.57;;;26.60;99.60;;;;;;5073625;28;20260;-77
2021/06/08 09:23:08;;;;;;;8.20;6.65;;;26.70;99.90;;;;;;5073040;28;20653;-77
2021/06/08 09:25:34;;;;;;;10.23;7.72;;;26.50;98.70;;;;;;5019055;28;20194;-77
2021/06/08 09:28:19;;;;;;;9.40;6.90;;;26.20;99.00;;;;;;5072943;28;20523;-77
2021/06/08 09:30:46;;;;;;;10.68;6.72;;;26.10;99.00;;;;;;5073408;28;20193;-77
2021/06/08 09:33:48;;;;;;;7.72;6.90;;;25.90;99.90;;;;;;5065277;28;20523;-77
2021/06/08 09:36:15;;;;;;;14.93;7.03;;;25.90;99.90;;;;;;5072579;28;20178;-77
2021/06/08 09:38:51;;;;;;;9.65;7.80;;;25.90;99.80;;;;;;5055635;28;20263;-77
2021/06/08 09:41:22;;;;;;;7.60;6.88;;;25.70;99.90;;;;;;5072620;28;20582;-77
2021/06/08 09:43:57;;;;;;;12.32;7.25;;;25.30;99.90;;;;;;5073690;28;20214;-77
2021/06/08 09:46:44;;;;;;;12.20;7.68;;;25.40;99.90;;;;;;5073099;28;20181;-77
2021/06/08 09:49:11;;;;;;;8.80;8.05;;;25.40;99.90;;;;;;5053539;28;20701;-80
2021/06/08 09:52:01;;;;;;;7.68;6.97;;;25.00;99.90;;;;;;5073282;28;20278;-78
2021/06/08 09:54:32;;;;;;;12.07;7.32;;;25.00;99.90;;;;;;5082204;28;20175;-78
2021/06/08 09:57:27;;;;;;;15.38;8.32;;;24.90;99.90;;;;;;5069644;28;20182;-78
2021/06/08 10:00:00;;;;;;;7.28;6.72;;;25.40;99.90;;;;;;5089623;28;20194;-84
2021/06/08 10:02:38;;;;;;;7.53;6.80;;;25.40;99.90;;;;;;5089483;28;20169;-80
2021/06/08 10:05:24;;;;;;;7.78;7.07;;;25.60;99.90;;;;;;5092003;28;20585;-79
2021/06/08 10:08:06;;;;;;;8.40;7.70;;;25.60;99.50;;;;;;5070827;28;20642;-79
2021/06/08 10:10:49;;;;;;;11.82;9.02;;;25.70;99.00;;;;;;5076690;28;20190;-81
2021/06/08 10:13:15;;;;;;;9.25;8.30;;;25.40;99.60;;;;;;5057929;28;20242;-81
2021/06/08 10:15:54;;;;;;;9.75;6.68;;;25.50;99.80;;;;;;5057207;28;20218;-82
2021/06/08 10:18:20;;;;;;;12.02;7.43;;;25.40;99.20;;;;;;5073771;28;20209;-84
2021/06/08 10:20:51;;;;;;;8.10;7.40;;;25.80;99.80;;;;;;5072382;28;20699;-80
2021/06/08 10:23:19;;;;;;;15.70;6.65;;;26.30;99.30;;;;;;5071899;28;20255;-80
2021/06/08 10:25:45;;;;;;;7.70;6.28;;;26.70;98.30;;;;;;5071367;28;20167;-82
2021/06/08 10:28:12;;;;;;;7.30;6.70;;;26.90;97.90;;;;;;5072225;28;20250;-81
2021/06/08 10:30:48;;;;;;;9.95;8.93;;;26.40;99.10;;;;;;5054111;28;20594;-79
2021/06/08 10:33:14;;;;;;;7.60;6.85;;;26.00;98.70;;;;;;5071923;28;20190;-78
2021/06/08 10:35:41;;;;;;;9.10;8.40;;;25.90;99.50;;;;;;5072617;28;20162;-78
2021/06/08 10:38:08;;;;;;;8.25;7.32;;;25.70;98.80;;;;;;5071458;28;20240;-79
2021/06/08 10:40:36;;;;;;;8.55;7.85;;;25.90;98.90;;;;;;5072535;28;20191;-82
2021/06/08 10:43:03;;;;;;;9.05;7.80;;;25.80;98.80;;;;;;5054219;28;20178;-81
2021/06/08 10:45:37;;;;;;;7.63;7.03;;;25.60;99.30;;;;;;5055331;28;20269;-81
2021/06/08 10:48:20;;;;;;;9.00;7.82;;;25.60;98.90;;;;;;5055436;28;20176;-81
2021/06/08 10:50:49;;;;;;;9.10;7.97;;;25.70;99.10;;;;;;5062578;28;20190;-82
2021/06/08 10:53:29;;;;;;;7.53;6.93;;;25.80;99.30;;;;;;5057901;28;20206;-82
2021/06/08 10:55:55;;;;;;;13.55;6.95;;;25.90;99.20;;;;;;5033710;28;20225;-82
2021/06/08 10:58:43;;;;;;;9.15;8.15;;;26.00;99.10;;;;;;5052368;28;20211;-82
2021/06/08 11:01:28;;;;;;;10.98;7.32;;;26.00;98.50;;;;;;5051994;28;20227;-80
2021/06/08 11:03:55;;;;;;;7.72;6.78;;;26.30;98.10;;;;;;5050907;28;20186;-80
2021/06/08 11:06:52;;;;;;;8.18;7.35;;;26.30;98.70;;;;;;5051735;28;20169;-79
2021/06/08 11:09:31;;;;;;;9.00;6.78;;;26.40;98.40;;;;;;5051129;28;20297;-80
2021/06/08 11:12:08;;;;;;;7.03;6.43;;;26.60;98.20;;;;;;5050311;28;20179;-79
2021/06/08 11:17:11;;;;;;;10.82;6.65;;;26.80;97.40;;;;;;5051370;28;20205;-78
2021/06/08 11:19:53;;;;;;;6.68;6.07;;;26.80;97.90;;;;;;5051818;28;20242;-80
2021/06/08 11:22:42;;;;;;;9.60;5.93;;;26.70;97.80;;;;;;5052056;28;20163;-80
2021/06/08 11:25:42;;;;;;;10.70;6.13;;;26.90;97.40;;;;;;5041500;28;20194;-79
2021/06/08 11:28:09;;;;;;;9.40;5.22;;;26.80;97.70;;;;;;5033932;28;20182;-76
2021/06/08 11:30:40;;;;;;;7.68;6.60;;;26.90;98.60;;;;;;5051620;28;20187;-77
2021/06/08 11:33:09;;;;;;;7.05;6.53;;;26.30;98.10;;;;;;5051511;28;20187;-78
2021/06/08 11:35:42;;;;;;;10.65;6.68;;;26.00;98.40;;;;;;5051838;28;20175;-77
2021/06/08 11:38:23;;;;;;;7.53;6.95;;;26.20;98.40;;;;;;5051639;28;20674;-77
2021/06/08 11:40:51;;;;;;;6.03;5.45;;;26.00;98.60;;;;;;5051785;28;20198;-77
2021/06/08 11:43:16;;;;;;;7.18;6.60;;;26.10;98.60;;;;;;5052041;28;20170;-78
2021/06/08 11:45:44;;;;;;;7.28;6.57;;;25.80;98.70;;;;;;5051737;28;20179;-78
2021/06/08 11:48:41;;;;;;;11.48;6.28;;;25.80;98.50;;;;;;5051516;28;20171;-78
2021/06/08 11:51:18;;;;;;;7.10;6.40;;;26.00;97.80;;;;;;5051596;28;20179;-79
2021/06/08 11:54:10;;;;;;;9.75;6.40;;;25.90;98.10;;;;;;5033885;28;20179;-78
2021/06/08 11:57:00;;;;;;;7.28;6.72;;;25.30;98.70;;;;;;5051759;28;20666;-78
2021/06/08 11:59:31;;;;;;;9.13;6.45;;;25.20;98.60;;;;;;5053023;28;20213;-80
2021/06/08 12:02:02;;;;;;;7.30;6.43;;;25.30;98.30;;;;;;5055748;28;20159;-78
2021/06/08 12:04:30;;;;;;;6.82;6.22;;;25.30;98.40;;;;;;5055929;28;20167;-82
2021/06/08 12:07:07;;;;;;;41.58;9.98;;;25.50;97.90;;;;;;5056262;28;20254;-79
2021/06/08 12:09:53;;;;;;;7.78;5.85;;;25.70;98.70;;;;;;5055984;28;20191;-79
2021/06/08 12:12:19;;;;;;;9.93;5.97;;;26.20;98.10;;;;;;5056026;28;20190;-78
2021/06/08 12:14:51;;;;;;;10.32;5.90;;;26.60;96.70;;;;;;5058303;28;20178;-78
2021/06/08 12:17:17;;;;;;;5.63;5.22;;;26.80;96.20;;;;;;5055667;28;20559;-78
2021/06/08 12:19:43;;;;;;;5.50;5.00;;;27.00;96.40;;;;;;5074647;28;20217;-80
2021/06/08 12:22:22;;;;;;;7.60;5.82;;;26.90;97.10;;;;;;5074452;28;20615;-78
2021/06/08 12:25:02;;;;;;;8.18;6.72;;;26.80;97.00;;;;;;5073791;28;20174;-78
2021/06/08 12:27:42;;;;;;;6.97;6.28;;;26.90;96.00;;;;;;5074184;28;20324;-77
2021/06/08 12:30:11;;;;;;;6.55;5.93;;;26.60;96.10;;;;;;5055971;28;20272;-77
2021/06/08 12:32:38;;;;;;;11.80;6.38;;;26.40;96.60;;;;;;5073411;28;20261;-78
2021/06/08 12:37:29;;;;;;;18.60;5.63;;;26.20;97.00;;;;;;5070679;28;20175;-82
2021/06/08 12:39:57;;;;;;;6.13;5.53;;;26.00;96.80;;;;;;5053829;28;20222;-79
2021/06/08 12:42:23;;;;;;;6.10;5.43;;;25.90;96.70;;;;;;5053298;28;20164;-82
2021/06/08 12:44:50;;;;;;;5.32;4.82;;;25.90;96.50;;;;;;5065533;28;20261;-81
2021/06/08 12:47:18;;;;;;;8.68;4.57;;;26.00;97.10;;;;;;5074109;28;20245;-83
2021/06/08 12:49:44;;;;;;;6.03;5.50;;;26.00;96.90;;;;;;5074387;28;20174;-82
2021/06/08 12:52:21;;;;;;;6.78;4.93;;;26.10;95.60;;;;;;5074004;28;20170;-78
2021/06/08 12:54:51;;;;;;;6.20;5.15;;;26.10;96.90;;;;;;5060229;28;20288;-78
2021/06/08 12:57:32;;;;;;;8.73;5.78;;;26.00;96.60;;;;;;5052801;28;20254;-82
2021/06/08 13:00:15;;;;;;;6.72;5.13;;;26.00;96.90;;;;;;5052849;28;20267;-81
2021/06/08 13:02:41;;;;;;;4.65;4.25;;;26.30;96.70;;;;;;5053542;28;20638;-77